Time;durP1;ratioP1;P1;durP2;ratioP2;P2;SDS_P1;SDS_P2;PMS_P1;PMS_P2;Temp;Humidity;BMP_temperature;BMP_pressure;BME280_temperature;BME280_humidity;BME280_pressure;Samples;Min_cycle;Max_cycle;Signal;HPM_P1;HPM_P2
2021/01/30 00:00:07;;;;;;;26.97;12.33;;;;;;;4.46;76.78;92990.16;5073730;28;20651;-74
2021/01/30 00:02:33;;;;;;;21.30;11.52;;;;;;;4.66;75.61;93001.47;5092145;28;20232;-74
2021/01/30 00:04:59;;;;;;;23.03;12.63;;;;;;;4.64;75.61;93000.28;5092300;28;20182;-75
2021/01/30 00:07:24;;;;;;;25.80;13.07;;;;;;;4.56;76.21;92998.63;5092183;28;20597;-75
2021/01/30 00:09:50;;;;;;;24.67;12.80;;;;;;;4.62;76.17;93000.63;5092472;28;20528;-75
2021/01/30 00:12:15;;;;;;;24.50;12.97;;;;;;;4.65;75.93;92996.50;5092058;28;20307;-75
2021/01/30 00:14:41;;;;;;;25.77;13.47;;;;;;;4.58;77.05;92994.50;5092181;28;20671;-74
2021/01/30 00:17:07;;;;;;;24.13;12.53;;;;;;;4.54;76.73;92998.22;5092119;28;20170;-75
2021/01/30 00:19:32;;;;;;;22.87;13.80;;;;;;;4.56;76.13;92988.06;5092338;28;20209;-75
2021/01/30 00:22:00;;;;;;;22.90;12.20;;;;;;;4.55;76.59;92981.25;5091877;28;20182;-75
2021/01/30 00:24:26;;;;;;;23.27;11.80;;;;;;;4.50;76.65;92982.31;5092259;28;20178;-76
2021/01/30 00:26:59;;;;;;;27.17;13.90;;;;;;;4.10;76.82;92925.41;5092362;28;20240;-75
2021/01/30 00:29:26;;;;;;;24.58;13.38;;;;;;;4.59;77.03;92976.78;5072937;28;20190;-75
2021/01/30 00:31:52;;;;;;;25.08;13.98;;;;;;;4.61;76.66;92979.84;5091996;28;20177;-75
2021/01/30 00:34:18;;;;;;;22.77;13.80;;;;;;;4.68;75.09;92966.72;5091659;28;20185;-76
2021/01/30 00:36:44;;;;;;;24.35;13.32;;;;;;;4.83;75.21;92959.78;5091866;28;20167;-75
2021/01/30 00:39:09;;;;;;;22.97;12.73;;;;;;;4.76;75.11;92944.56;5073288;28;20254;-75
2021/01/30 00:41:35;;;;;;;27.70;12.50;;;;;;;4.73;75.77;92942.63;5091932;28;20206;-75
2021/01/30 00:44:00;;;;;;;25.60;12.57;;;;;;;4.62;76.28;92939.84;5091888;28;20629;-75
2021/01/30 00:46:26;;;;;;;22.37;13.03;;;;;;;4.75;75.32;92927.19;5091819;28;20178;-75
2021/01/30 00:48:52;;;;;;;25.88;13.93;;;;;;;4.69;75.68;92933.88;5091556;28;20269;-76
2021/01/30 00:51:21;;;;;;;24.33;12.27;;;;;;;4.66;75.54;92929.31;5092198;28;20178;-75
2021/01/30 00:53:46;;;;;;;24.20;12.80;;;;;;;4.72;75.57;92922.59;5091226;28;20200;-75
2021/01/30 00:56:12;;;;;;;25.87;13.67;;;;;;;4.76;75.47;92915.47;5091981;28;20178;-75
2021/01/30 00:58:44;;;;;;;26.17;13.47;;;;;;;4.85;74.69;92905.41;5057196;28;20620;-75
2021/01/30 01:01:10;;;;;;;23.27;12.55;;;;;;;4.90;74.64;92901.72;5091985;28;20167;-75
2021/01/30 01:03:36;;;;;;;25.37;12.33;;;;;;;4.66;74.88;92881.75;5091018;28;20185;-76
2021/01/30 01:06:02;;;;;;;21.40;12.80;;;;;;;4.75;75.16;92892.81;5091320;28;20834;-75
2021/01/30 01:08:27;;;;;;;20.60;12.00;;;;;;;4.74;75.22;92888.63;5091420;28;20167;-76
2021/01/30 01:10:53;;;;;;;26.07;12.87;;;;;;;4.62;75.38;92883.56;5091244;28;20666;-76
2021/01/30 01:13:18;;;;;;;24.10;12.30;;;;;;;4.80;75.09;92881.91;5091574;28;20174;-75
2021/01/30 01:15:44;;;;;;;18.53;9.83;;;;;;;4.69;74.88;92871.19;5091338;28;20174;-75
2021/01/30 01:18:10;;;;;;;22.57;11.07;;;;;;;4.76;74.99;92868.63;5091377;28;20202;-75
2021/01/30 01:20:35;;;;;;;21.43;11.43;;;;;;;4.87;74.47;92858.22;5091111;28;20178;-76
2021/01/30 01:23:01;;;;;;;23.77;12.13;;;;;;;4.67;75.84;92862.09;5091316;28;20205;-75
2021/01/30 01:25:26;;;;;;;29.07;14.50;;;;;;;4.61;75.42;92858.25;5091300;28;20228;-75
2021/01/30 01:27:52;;;;;;;25.57;13.80;;;;;;;4.43;76.03;92856.09;5091152;28;20212;-75
2021/01/30 01:30:19;;;;;;;31.30;14.03;;;;;;;4.47;75.96;92843.69;5091222;28;20600;-76
2021/01/30 01:32:44;;;;;;;24.77;13.18;;;;;;;4.37;76.30;92828.44;5073499;28;20206;-75
2021/01/30 01:35:17;;;;;;;21.67;12.93;;;;;;;4.43;76.28;92842.91;5091326;28;20213;-75
2021/01/30 01:37:43;;;;;;;22.08;12.40;;;;;;;4.24;77.09;92841.09;5072854;28;20179;-75
2021/01/30 01:40:10;;;;;;;23.77;12.45;;;;;;;4.31;76.86;92834.38;5091147;28;20186;-75
2021/01/30 01:42:36;;;;;;;23.35;14.00;;;;;;;4.25;77.27;92821.47;5069751;28;20174;-76
2021/01/30 01:45:02;;;;;;;25.07;12.17;;;;;;;4.28;77.29;92822.66;5086671;28;20178;-75
2021/01/30 01:47:31;;;;;;;26.40;14.02;;;;;;;4.34;76.60;92820.47;5091201;28;20180;-76
2021/01/30 01:49:58;;;;;;;25.83;14.68;;;;;;;4.11;78.00;92804.66;5073514;28;20182;-76
2021/01/30 01:52:35;;;;;;;31.55;15.73;;;;;;;4.17;77.74;92792.69;5073161;28;20174;-75
2021/01/30 01:55:09;;;;;;;35.53;17.15;;;;;;;4.09;77.77;92793.69;5056658;28;20174;-76
2021/01/30 01:57:35;;;;;;;36.55;16.00;;;;;;;4.24;77.41;92796.19;5056427;28;20181;-75
2021/01/30 02:00:00;;;;;;;33.70;16.80;;;;;;;4.35;76.59;92785.00;5072202;28;20185;-76
2021/01/30 02:02:30;;;;;;;30.67;15.53;;;;;;;4.08;77.37;92776.31;5090885;28;20167;-75
2021/01/30 02:05:08;;;;;;;32.35;18.23;;;;;;;4.19;77.18;92777.22;5056212;28;20642;-75
2021/01/30 02:07:38;;;;;;;32.05;17.08;;;;;;;4.17;76.98;92780.22;5073009;28;20181;-75
2021/01/30 02:10:07;;;;;;;32.47;17.90;;;;;;;4.18;77.34;92763.25;5073028;28;20177;-75
2021/01/30 02:12:32;;;;;;;33.83;19.15;;;;;;;4.28;77.04;92766.41;5090734;28;20174;-75
2021/01/30 02:14:57;;;;;;;32.70;17.80;;;;;;;4.09;77.75;92762.75;5075501;28;20181;-75
2021/01/30 02:17:46;;;;;;;31.13;17.53;;;;;;;3.84;79.11;92762.38;5076333;28;20175;-75
2021/01/30 02:20:39;;;;;;;32.75;16.45;;;;;;;3.93;78.46;92770.84;5077961;28;20220;-75
2021/01/30 02:23:26;;;;;;;30.90;16.52;;;;;;;3.90;78.41;92760.97;5094024;28;20195;-75
2021/01/30 02:26:34;;;;;;;28.30;16.70;;;;;;;4.12;77.45;92750.72;5094516;28;20189;-75
2021/01/30 02:29:02;;;;;;;29.42;15.18;;;;;;;4.18;77.29;92754.56;5088172;28;20182;-75
2021/01/30 02:31:55;;;;;;;33.20;16.58;;;;;;;3.88;78.48;92747.38;5093804;28;20193;-75
2021/01/30 02:34:32;;;;;;;34.08;16.55;;;;;;;4.13;78.32;92755.66;5075894;28;20178;-75
2021/01/30 02:37:03;;;;;;;28.35;17.00;;;;;;;4.28;76.77;92766.41;5094234;28;20162;-76
2021/01/30 02:39:39;;;;;;;31.90;15.82;;;;;;;4.30;76.58;92749.09;5106831;28;20554;-75
2021/01/30 02:42:14;;;;;;;31.50;17.20;;;;;;;4.17;76.49;92764.38;5113203;28;20284;-76
2021/01/30 02:44:41;;;;;;;31.63;16.48;;;;;;;4.08;76.68;92755.94;5112846;28;20668;-75
2021/01/30 02:47:09;;;;;;;35.28;17.25;;;;;;;4.14;76.47;92751.13;5096280;28;20178;-76
2021/01/30 02:49:36;;;;;;;29.27;16.77;;;;;;;4.24;77.04;92766.38;5112840;28;20669;-76
2021/01/30 02:52:15;;;;;;;34.50;16.77;;;;;;;4.13;78.00;92763.56;5079323;28;20558;-75
2021/01/30 02:54:40;;;;;;;34.65;18.35;;;;;;;4.20;76.80;92757.63;5112905;28;20200;-76
2021/01/30 02:57:07;;;;;;;35.13;17.00;;;;;;;4.09;77.46;92765.38;5113050;28;20556;-76
2021/01/30 02:59:33;;;;;;;33.80;17.85;;;;;;;3.96;78.27;92766.72;5112583;28;20221;-76
2021/01/30 03:01:59;;;;;;;33.10;18.97;;;;;;;3.95;78.20;92767.81;5095906;28;20181;-76
2021/01/30 03:04:26;;;;;;;32.10;19.33;;;;;;;3.94;78.37;92772.34;5114078;28;20173;-75
2021/01/30 03:07:00;;;;;;;37.72;21.38;;;;;;;3.85;78.59;92774.47;5112959;28;20176;-76
2021/01/30 03:09:40;;;;;;;43.25;22.00;;;;;;;3.92;78.46;92774.56;5113953;28;20206;-75
2021/01/30 03:12:22;;;;;;;42.70;22.30;;;;;;;4.13;77.45;92783.94;5113951;28;20177;-75
2021/01/30 03:14:57;;;;;;;39.40;20.40;;;;;;;4.11;77.82;92780.91;5112513;28;20247;-76
2021/01/30 03:17:25;;;;;;;40.92;21.25;;;;;;;4.15;77.50;92779.06;5096842;28;20177;-76
2021/01/30 03:19:53;;;;;;;43.03;20.58;;;;;;;3.99;78.05;92781.84;5095282;28;20280;-75
2021/01/30 03:22:18;;;;;;;49.28;24.27;;;;;;;4.09;77.98;92775.19;5112457;28;20184;-76
2021/01/30 03:24:46;;;;;;;47.90;25.30;;;;;;;4.18;77.00;92779.13;5112079;28;20551;-75
2021/01/30 03:27:31;;;;;;;54.60;26.10;;;;;;;4.08;77.56;92790.28;5095029;28;20170;-76
2021/01/30 03:29:57;;;;;;;50.75;26.48;;;;;;;4.13;76.76;92784.69;5113260;28;20234;-76
2021/01/30 03:32:24;;;;;;;51.13;27.57;;;;;;;4.13;76.77;92789.97;5112140;28;20256;-75
2021/01/30 03:34:50;;;;;;;53.63;27.17;;;;;;;4.07;76.44;92785.34;5113195;28;20789;-75
2021/01/30 03:37:16;;;;;;;57.92;27.38;;;;;;;4.00;77.04;92791.28;5112099;28;20182;-75
2021/01/30 03:39:41;;;;;;;59.80;29.33;;;;;;;4.20;75.94;92798.00;5111280;28;20322;-75
2021/01/30 03:42:07;;;;;;;58.83;28.73;;;;;;;3.97;76.39;92792.75;5113117;28;20613;-75
2021/01/30 03:44:32;;;;;;;54.93;27.30;;;;;;;3.94;76.05;92804.03;5113049;28;20177;-76
2021/01/30 03:46:58;;;;;;;51.67;27.17;;;;;;;4.04;75.99;92796.63;5113207;28;20176;-75
2021/01/30 03:49:23;;;;;;;56.43;27.80;;;;;;;3.89;75.80;92808.84;5111837;28;20185;-76
2021/01/30 03:51:49;;;;;;;50.33;26.60;;;;;;;3.92;75.79;92800.97;5112777;28;20181;-75
2021/01/30 03:54:14;;;;;;;60.00;27.80;;;;;;;3.73;75.38;92803.69;5112869;28;20280;-77
2021/01/30 03:56:44;;;;;;;58.33;28.77;;;;;;;3.82;75.05;92801.59;5111111;27;20681;-75
2021/01/30 03:59:09;;;;;;;46.85;25.08;;;;;;;3.85;74.63;92798.22;5112977;28;20209;-75
2021/01/30 04:01:35;;;;;;;49.43;26.57;;;;;;;3.87;74.67;92803.94;5112791;28;20173;-75
2021/01/30 04:04:00;;;;;;;56.17;27.40;;;;;;;3.80;74.56;92808.31;5112903;28;20646;-75
2021/01/30 04:06:26;;;;;;;55.63;27.23;;;;;;;3.68;74.73;92807.38;5112506;28;20173;-75
2021/01/30 04:08:52;;;;;;;54.00;29.03;;;;;;;3.65;74.94;92802.06;5112677;28;20181;-76
2021/01/30 04:11:25;;;;;;;53.27;28.80;;;;;;;3.74;74.49;92802.56;5093721;28;20196;-75
2021/01/30 04:13:51;;;;;;;58.08;28.80;;;;;;;3.73;74.45;92795.75;5112688;28;20176;-75
2021/01/30 04:16:16;;;;;;;49.17;26.87;;;;;;;3.76;74.79;92804.84;5112311;28;20253;-76
2021/01/30 04:18:42;;;;;;;58.40;29.03;;;;;;;3.70;74.34;92791.97;5112398;28;20666;-75
2021/01/30 04:21:07;;;;;;;59.67;27.30;;;;;;;3.63;74.92;92791.06;5112714;28;20309;-75
2021/01/30 04:23:33;;;;;;;47.00;25.47;;;;;;;3.53;75.44;92791.66;5112597;28;20204;-75
2021/01/30 04:25:58;;;;;;;50.10;27.57;;;;;;;3.58;74.83;92791.34;5112595;28;20165;-75
2021/01/30 04:28:23;;;;;;;47.63;26.50;;;;;;;3.70;74.98;92783.25;5112118;28;20260;-75
2021/01/30 04:30:49;;;;;;;54.50;26.33;;;;;;;3.82;73.74;92780.47;5112178;28;20525;-75
2021/01/30 04:33:14;;;;;;;52.67;26.30;;;;;;;3.78;74.49;92787.56;5111884;28;20172;-75
2021/01/30 04:35:40;;;;;;;51.97;26.60;;;;;;;3.78;74.34;92786.78;5112529;28;20173;-76
2021/01/30 04:38:06;;;;;;;52.53;25.63;;;;;;;3.59;74.92;92784.97;5107544;28;20259;-76
2021/01/30 04:40:34;;;;;;;45.23;25.07;;;;;;;3.56;74.72;92794.34;5091606;28;20213;-75
2021/01/30 04:42:59;;;;;;;48.78;25.48;;;;;;;3.68;74.61;92799.47;5073844;28;20265;-76
2021/01/30 04:45:39;;;;;;;51.70;25.87;;;;;;;3.57;74.70;92790.59;5091651;28;20296;-76
2021/01/30 04:48:23;;;;;;;51.53;26.38;;;;;;;3.60;74.98;92797.06;5091630;28;20180;-76
2021/01/30 04:50:57;;;;;;;50.78;25.20;;;;;;;3.24;75.68;92791.16;5091686;28;20189;-76
2021/01/30 04:53:50;;;;;;;52.10;25.75;;;;;;;3.50;75.56;92805.56;5057377;28;20192;-75
2021/01/30 04:56:40;;;;;;;46.53;25.20;;;;;;;3.51;74.89;92801.81;5075982;28;20177;-75
2021/01/30 04:59:30;;;;;;;48.38;25.30;;;;;;;3.45;74.92;92809.25;5091594;28;20205;-75
2021/01/30 05:01:57;;;;;;;44.28;23.88;;;;;;;3.53;75.29;92810.88;5073716;28;20201;-76
2021/01/30 05:04:39;;;;;;;47.15;23.67;;;;;;;3.42;75.72;92818.63;5073565;28;20655;-75
2021/01/30 05:07:17;;;;;;;42.47;22.65;;;;;;;3.48;75.51;92813.03;5073290;28;20633;-75
2021/01/30 05:09:45;;;;;;;45.85;22.33;;;;;;;3.23;76.50;92818.63;5073802;28;20176;-75
2021/01/30 05:12:34;;;;;;;40.08;21.77;;;;;;;3.15;76.87;92817.75;5091327;28;20174;-75
2021/01/30 05:15:04;;;;;;;40.80;21.58;;;;;;;3.28;76.59;92828.16;5073562;28;20643;-75
2021/01/30 05:17:33;;;;;;;42.65;22.10;;;;;;;3.31;76.02;92833.50;5056898;28;20193;-75
2021/01/30 05:20:09;;;;;;;40.28;22.33;;;;;;;3.30;76.20;92837.22;5056775;28;20230;-75
2021/01/30 05:22:40;;;;;;;41.50;22.17;;;;;;;3.29;76.11;92840.97;5073406;28;20189;-75
2021/01/30 05:25:14;;;;;;;43.78;21.83;;;;;;;3.17;76.74;92839.25;5073077;28;20666;-75
2021/01/30 05:27:50;;;;;;;47.75;22.85;;;;;;;3.16;76.53;92847.53;5057482;28;20768;-75
2021/01/30 05:30:52;;;;;;;43.85;22.02;;;;;;;3.19;76.89;92850.22;5073056;28;20206;-75
2021/01/30 05:33:26;;;;;;;45.13;23.25;;;;;;;3.25;75.93;92853.31;5012320;28;20263;-75
2021/01/30 05:35:51;;;;;;;39.83;21.83;;;;;;;3.41;75.95;92859.28;5013143;28;20226;-75
2021/01/30 05:38:44;;;;;;;43.77;23.40;;;;;;;3.50;74.98;92851.16;5038490;28;20226;-75
2021/01/30 05:41:15;;;;;;;41.15;23.15;;;;;;;3.34;75.71;92853.88;5069093;28;20558;-75
2021/01/30 05:44:01;;;;;;;42.42;22.55;;;;;;;3.34;75.28;92855.78;5052222;28;20183;-75
2021/01/30 05:46:28;;;;;;;35.95;20.55;;;;;;;3.37;75.76;92863.75;5053322;28;20225;-75
2021/01/30 05:48:54;;;;;;;40.13;22.55;;;;;;;3.44;75.60;92874.44;5036601;28;20190;-75
2021/01/30 05:51:35;;;;;;;40.90;22.05;;;;;;;3.36;75.56;92861.44;5039458;28;20603;-75
2021/01/30 05:54:00;;;;;;;40.70;20.15;;;;;;;3.50;75.25;92872.28;5041061;28;20182;-75
2021/01/30 05:56:28;;;;;;;43.03;21.00;;;;;;;3.42;75.38;92873.25;5072500;28;20701;-75
2021/01/30 05:58:53;;;;;;;39.17;20.52;;;;;;;3.42;75.26;92881.16;5055487;28;20217;-75
2021/01/30 06:01:21;;;;;;;37.63;20.47;;;;;;;3.32;75.62;92879.88;5055767;28;20187;-75
2021/01/30 06:03:53;;;;;;;33.83;19.00;;;;;;;3.15;76.34;92882.91;5072097;28;20194;-75
2021/01/30 06:06:19;;;;;;;36.80;18.77;;;;;;;3.15;76.90;92888.94;5071233;28;20771;-74
2021/01/30 06:08:58;;;;;;;29.43;17.90;;;;;;;3.16;76.56;92908.94;5071848;28;20262;-75
2021/01/30 06:11:23;;;;;;;30.10;17.10;;;;;;;3.24;76.08;92909.84;5097013;28;20564;-75
2021/01/30 06:13:58;;;;;;;32.90;19.43;;;;;;;3.17;76.50;92921.00;5096439;28;20173;-75
2021/01/30 06:16:45;;;;;;;31.67;17.67;;;;;;;3.26;76.06;92926.09;5114926;28;20187;-75
2021/01/30 06:19:19;;;;;;;34.42;17.73;;;;;;;3.33;75.73;92931.50;5114631;28;20200;-75
2021/01/30 06:21:46;;;;;;;26.65;15.00;;;;;;;3.11;76.34;92927.66;5114637;28;20176;-75
2021/01/30 06:24:24;;;;;;;28.35;16.02;;;;;;;3.13;76.83;92933.34;5113428;28;20208;-75
2021/01/30 06:26:50;;;;;;;25.67;14.55;;;;;;;3.06;77.08;92937.72;5114395;28;20645;-75
2021/01/30 06:29:31;;;;;;;21.30;11.83;;;;;;;3.04;77.18;92945.97;5096482;28;20252;-75
2021/01/30 06:32:05;;;;;;;22.85;13.60;;;;;;;3.06;76.94;92943.75;5114181;28;20177;-75
2021/01/30 06:34:32;;;;;;;22.27;11.70;;;;;;;3.05;77.22;92952.03;5096347;28;20238;-73
2021/01/30 06:36:58;;;;;;;18.45;11.32;;;;;;;2.94;77.67;92954.41;5114337;28;20569;-73
2021/01/30 06:39:34;;;;;;;19.37;10.93;;;;;;;3.05;77.18;92960.69;5112999;28;20217;-73
2021/01/30 06:42:07;;;;;;;12.77;8.40;;;;;;;2.94;77.53;92964.19;5095936;28;20165;-73
2021/01/30 06:44:33;;;;;;;15.85;8.75;;;;;;;2.81;78.06;92955.66;5095253;28;20692;-73
2021/01/30 06:47:20;;;;;;;13.17;8.03;;;;;;;3.02;77.59;92964.00;5096031;28;20166;-74
2021/01/30 06:49:47;;;;;;;11.80;6.95;;;;;;;3.14;77.25;92960.47;5114277;28;20213;-73
2021/01/30 06:52:15;;;;;;;9.52;6.80;;;;;;;3.30;76.62;92969.13;5112846;28;20212;-74
2021/01/30 06:54:40;;;;;;;8.73;5.90;;;;;;;3.47;76.01;92964.56;5114075;28;20177;-74
2021/01/30 06:57:14;;;;;;;9.40;5.57;;;;;;;3.45;75.33;92976.22;5113793;28;20166;-74
2021/01/30 07:00:05;;;;;;;9.00;5.18;;;;;;;3.56;75.67;92986.22;5112531;28;20237;-74
2021/01/30 07:02:39;;;;;;;7.88;5.32;;;;;;;3.53;75.62;92979.75;5113800;28;20165;-74
2021/01/30 07:05:20;;;;;;;10.20;5.13;;;;;;;3.52;75.50;92985.38;5095948;28;20174;-74
2021/01/30 07:07:53;;;;;;;7.13;4.80;;;;;;;3.61;75.37;92976.16;5113811;28;20699;-74
2021/01/30 07:10:25;;;;;;;7.80;5.15;;;;;;;3.56;76.01;92979.06;5113764;28;20265;-74
2021/01/30 07:13:09;;;;;;;6.65;4.35;;;;;;;3.55;75.78;92980.19;5113823;28;20170;-74
2021/01/30 07:15:41;;;;;;;5.50;3.80;;;;;;;3.49;76.20;92988.75;5113583;28;20256;-73
2021/01/30 07:18:13;;;;;;;5.45;3.63;;;;;;;3.62;76.73;92984.84;5095439;28;20200;-74
2021/01/30 07:20:45;;;;;;;7.20;3.65;;;;;;;3.59;76.68;92996.88;5113551;28;20519;-74
2021/01/30 07:23:46;;;;;;;10.35;3.50;;;;;;;3.52;76.63;92998.59;5112428;28;20173;-74
2021/01/30 07:26:17;;;;;;;5.22;3.35;;;;;;;3.60;76.59;93005.56;5030667;28;20185;-74
2021/01/30 07:28:59;;;;;;;4.28;2.72;;;;;;;3.70;76.02;93010.25;5030663;28;20666;-74
2021/01/30 07:31:30;;;;;;;4.10;3.03;;;;;;;3.71;76.29;93009.16;5030774;28;20183;-74
2021/01/30 07:34:00;;;;;;;3.20;2.90;;;;;;;3.67;76.44;93017.00;5014546;28;20180;-74
2021/01/30 07:36:41;;;;;;;5.05;2.88;;;;;;;3.75;76.31;93023.19;5014061;28;20234;-75
2021/01/30 07:39:31;;;;;;;3.03;2.22;;;;;;;3.57;76.65;93011.50;5013769;28;20236;-74
2021/01/30 07:42:22;;;;;;;2.72;2.10;;;;;;;3.81;76.36;93028.94;4998897;28;20189;-75
2021/01/30 07:44:47;;;;;;;4.10;2.97;;;;;;;3.77;76.92;93034.19;5025546;28;20192;-74
2021/01/30 07:47:16;;;;;;;4.90;2.63;;;;;;;3.78;76.75;93040.97;5030200;28;20616;-74
2021/01/30 07:49:48;;;;;;;5.60;2.47;;;;;;;3.58;77.36;93037.53;5030410;28;20669;-74
2021/01/30 07:52:23;;;;;;;6.50;3.38;;;;;;;3.66;77.58;93033.97;5030180;28;20208;-74
2021/01/30 07:54:53;;;;;;;6.28;2.60;;;;;;;3.76;77.29;93040.56;4998606;28;20318;-74
2021/01/30 07:57:44;;;;;;;4.03;2.80;;;;;;;3.88;77.31;93039.69;4997549;28;20184;-75
2021/01/30 08:00:21;;;;;;;3.20;2.35;;;;;;;3.97;76.90;93037.56;5030035;28;20641;-75
2021/01/30 08:03:14;;;;;;;2.65;2.08;;;;;;;3.92;77.21;93046.53;5046659;28;20177;-74
2021/01/30 08:05:45;;;;;;;2.65;2.05;;;;;;;4.03;76.84;93048.63;5104766;28;20223;-75
2021/01/30 08:08:28;;;;;;;4.60;2.90;;;;;;;3.89;77.50;93054.41;5091167;28;20174;-75
2021/01/30 08:10:57;;;;;;;3.33;2.00;;;;;;;3.94;77.79;93060.16;5094493;28;20165;-74
2021/01/30 08:13:31;;;;;;;3.50;2.47;;;;;;;4.03;77.61;93067.09;5112471;28;20185;-74
2021/01/30 08:15:59;;;;;;;3.40;2.20;;;;;;;3.97;77.72;93070.03;5112246;28;20208;-74
2021/01/30 08:18:40;;;;;;;5.53;2.72;;;;;;;4.17;77.13;93067.41;5112463;28;20284;-74
2021/01/30 08:21:24;;;;;;;3.33;2.30;;;;;;;4.23;77.25;93074.69;5112094;28;20180;-74
2021/01/30 08:24:10;;;;;;;5.60;2.22;;;;;;;4.32;76.90;93085.06;5112485;28;20181;-74
2021/01/30 08:26:39;;;;;;;3.75;2.58;;;;;;;4.40;76.18;93093.88;5094325;28;20196;-74
2021/01/30 08:29:23;;;;;;;3.33;2.30;;;;;;;4.24;77.17;93094.72;5093925;28;20166;-74
2021/01/30 08:31:54;;;;;;;2.20;1.95;;;;;;;4.30;76.54;93095.19;5112165;28;20181;-74
2021/01/30 08:34:19;;;;;;;1.92;1.73;;;;;;;4.43;75.96;93101.09;5111836;28;20557;-76
2021/01/30 08:36:46;;;;;;;3.43;2.33;;;;;;;4.39;76.68;93095.75;5112258;28;20165;-74
2021/01/30 08:39:23;;;;;;;4.82;2.58;;;;;;;4.42;76.58;93110.13;5092839;28;20229;-75
2021/01/30 08:41:58;;;;;;;3.08;2.10;;;;;;;4.36;76.92;93122.88;5112225;28;20676;-75
2021/01/30 08:44:36;;;;;;;3.35;2.08;;;;;;;4.20;77.67;93114.25;5112104;28;20181;-74
2021/01/30 08:47:28;;;;;;;3.28;2.10;;;;;;;4.32;77.58;93126.53;5093406;28;20177;-75
2021/01/30 08:50:26;;;;;;;2.47;1.98;;;;;;;4.29;77.31;93127.25;5012904;28;20180;-75
2021/01/30 08:52:55;;;;;;;3.20;2.22;;;;;;;4.22;77.08;93086.38;5029160;28;20215;-75
2021/01/30 08:55:33;;;;;;;2.58;1.90;;;;;;;4.57;77.59;93135.72;5013023;28;20180;-74
2021/01/30 08:57:58;;;;;;;2.17;1.90;;;;;;;4.50;77.18;93135.59;5028988;28;20176;-75
2021/01/30 09:00:29;;;;;;;2.53;2.10;;;;;;;4.53;77.97;93128.84;5029426;28;20275;-73
2021/01/30 09:02:56;;;;;;;2.15;1.85;;;;;;;4.62;77.44;93139.97;5029098;28;20553;-74
2021/01/30 09:05:24;;;;;;;3.20;2.30;;;;;;;4.62;77.14;93143.38;5029206;28;20223;-74
2021/01/30 09:07:51;;;;;;;3.70;2.30;;;;;;;4.76;76.76;93134.94;5028897;28;20192;-74
2021/01/30 09:10:22;;;;;;;3.83;2.45;;;;;;;4.85;77.05;93145.31;5029326;28;20187;-73
2021/01/30 09:13:07;;;;;;;2.30;2.10;;;;;;;4.88;76.58;93145.38;5028883;28;20190;-74
2021/01/30 09:15:41;;;;;;;3.70;2.03;;;;;;;4.97;76.97;93151.19;5029091;28;20189;-73
2021/01/30 09:18:22;;;;;;;3.40;2.40;;;;;;;4.95;76.18;93142.84;5043902;28;20182;-73
2021/01/30 09:20:58;;;;;;;4.07;2.70;;;;;;;5.04;76.05;93156.59;5046514;28;20179;-73
2021/01/30 09:23:44;;;;;;;7.15;3.33;;;;;;;4.97;77.17;93155.72;5049090;28;20337;-73
2021/01/30 09:26:33;;;;;;;4.32;3.22;;;;;;;5.07;76.72;93159.66;5070631;27;20176;-73
2021/01/30 09:29:00;;;;;;;2.75;2.38;;;;;;;5.10;76.45;93153.66;5134633;27;20652;-75
2021/01/30 09:31:26;;;;;;;4.28;3.13;;;;;;;5.29;75.85;93167.63;5134769;27;20645;-75
2021/01/30 09:34:14;;;;;;;4.50;3.30;;;;;;;5.20;76.45;93164.44;5152773;27;20168;-75
2021/01/30 09:36:46;;;;;;;4.45;3.30;;;;;;;5.13;75.92;93158.25;5134790;27;20235;-75
2021/01/30 09:39:43;;;;;;;3.75;3.35;;;;;;;5.16;75.85;93168.13;5148298;27;20220;-74
2021/01/30 09:42:16;;;;;;;5.88;3.80;;;;;;;5.24;76.97;93167.16;5138205;27;20542;-75
2021/01/30 09:44:42;;;;;;;6.28;3.90;;;;;;;5.34;75.89;93157.88;5156473;27;20171;-75
2021/01/30 09:47:13;;;;;;;6.33;3.87;;;;;;;5.46;76.48;93145.19;5156737;27;20184;-75
2021/01/30 09:49:44;;;;;;;6.57;4.37;;;;;;;5.67;76.16;93144.78;5137552;27;20176;-75
2021/01/30 09:52:12;;;;;;;7.50;4.47;;;;;;;5.65;76.45;93146.22;5155493;27;20409;-75
2021/01/30 09:54:38;;;;;;;8.30;4.30;;;;;;;5.88;76.12;93152.25;5131717;27;20187;-75
2021/01/30 09:57:08;;;;;;;8.83;5.03;;;;;;;6.03;75.90;93145.28;5112150;27;20170;-74
2021/01/30 09:59:33;;;;;;;6.43;4.67;;;;;;;6.32;74.86;93141.13;5116716;27;20205;-74
2021/01/30 10:02:21;;;;;;;8.47;4.93;;;;;;;6.65;73.09;93145.69;5100430;27;20795;-74
2021/01/30 10:04:47;;;;;;;4.97;3.97;;;;;;;6.78;72.71;93135.59;5135503;27;20581;-74
2021/01/30 10:07:17;;;;;;;6.10;4.53;;;;;;;6.94;72.19;93138.03;5135579;27;20406;-76
2021/01/30 10:09:47;;;;;;;6.30;4.23;;;;;;;6.95;72.49;93134.25;5133748;27;20652;-75
2021/01/30 10:12:13;;;;;;;8.67;4.97;;;;;;;6.95;71.54;93139.56;5135424;27;20434;-75
2021/01/30 10:14:58;;;;;;;4.67;3.80;;;;;;;6.73;71.23;93143.88;5116659;27;20419;-75
2021/01/30 10:17:31;;;;;;;7.63;4.67;;;;;;;6.74;71.17;93134.81;5134180;27;20471;-75
2021/01/30 10:20:04;;;;;;;5.57;4.07;;;;;;;6.62;72.06;93138.44;5116241;27;20457;-77
2021/01/30 10:22:38;;;;;;;9.73;4.67;;;;;;;6.59;72.15;93145.25;5124935;27;20522;-74
2021/01/30 10:25:09;;;;;;;12.43;4.83;;;;;;;6.66;72.01;93149.09;5121413;27;20941;-74
2021/01/30 10:27:35;;;;;;;6.67;4.23;;;;;;;6.80;71.51;93141.31;5135136;27;20807;-74
2021/01/30 10:30:01;;;;;;;8.60;4.17;;;;;;;6.78;71.27;93143.53;5121380;27;20435;-74
2021/01/30 10:32:51;;;;;;;9.17;4.90;;;;;;;6.72;72.12;93150.31;5112772;27;20264;-74
2021/01/30 10:35:51;;;;;;;10.17;5.97;;;;;;;6.73;72.38;93141.22;5060248;28;20261;-74
2021/01/30 10:38:20;;;;;;;10.43;5.90;;;;;;;6.87;71.45;93144.03;5068455;28;21007;-74
2021/01/30 10:41:04;;;;;;;16.47;6.23;;;;;;;6.93;71.27;93155.84;5039495;28;20429;-74
2021/01/30 10:43:35;;;;;;;9.27;5.37;;;;;;;6.87;70.54;93155.41;5038071;28;21000;-74
2021/01/30 10:46:27;;;;;;;9.40;5.40;;;;;;;6.82;70.57;93153.06;5037990;28;20426;-75
2021/01/30 10:48:53;;;;;;;9.57;5.60;;;;;;;6.89;70.98;93153.16;5064051;28;20433;-76
2021/01/30 10:51:21;;;;;;;7.60;5.07;;;;;;;6.95;71.16;93172.16;5091414;28;20424;-76
2021/01/30 10:53:47;;;;;;;7.77;4.03;;;;;;;7.27;69.17;93164.53;5074851;28;20662;-75
2021/01/30 10:56:26;;;;;;;6.30;4.30;;;;;;;7.48;69.37;93171.91;5091519;28;20435;-75
2021/01/30 10:58:53;;;;;;;5.47;3.63;;;;;;;7.36;68.31;93159.69;5091268;28;20248;-75
2021/01/30 11:01:18;;;;;;;4.57;3.40;;;;;;;7.18;68.90;93164.03;5074552;28;20470;-75
2021/01/30 11:03:52;;;;;;;5.27;3.73;;;;;;;6.99;68.99;93159.69;5091454;28;20943;-75
2021/01/30 11:06:38;;;;;;;6.50;4.70;;;;;;;7.16;70.26;93180.34;5091111;28;20221;-74
2021/01/30 11:09:42;;;;;;;5.07;3.97;;;;;;;7.13;70.23;93167.06;5074697;28;20466;-75
2021/01/30 11:12:18;;;;;;;7.70;4.60;;;;;;;7.41;69.47;93158.59;5032605;28;20524;-75
2021/01/30 11:14:44;;;;;;;5.17;3.80;;;;;;;7.55;67.97;93157.94;5054152;28;20455;-74
2021/01/30 11:17:24;;;;;;;6.27;3.73;;;;;;;7.52;67.42;93163.97;5037682;28;20422;-74
2021/01/30 11:19:50;;;;;;;6.07;4.57;;;;;;;7.52;67.39;93162.09;5044972;28;20207;-74
2021/01/30 11:22:18;;;;;;;5.10;3.77;;;;;;;7.72;67.57;93167.94;5050913;28;21001;-74
2021/01/30 11:24:48;;;;;;;5.13;4.13;;;;;;;7.75;66.17;93169.88;5050533;28;20187;-75
2021/01/30 11:27:38;;;;;;;4.97;4.00;;;;;;;7.71;66.45;93178.94;5050831;28;20954;-74
2021/01/30 11:30:18;;;;;;;6.60;4.37;;;;;;;7.59;66.79;93190.59;5049901;28;20473;-74
2021/01/30 11:32:56;;;;;;;6.57;3.83;;;;;;;7.36;67.37;93185.47;5050580;28;20442;-75
2021/01/30 11:35:36;;;;;;;7.17;4.70;;;;;;;7.07;67.55;93195.81;5050219;28;20429;-75
2021/01/30 11:38:23;;;;;;;5.23;3.67;;;;;;;6.94;68.20;93201.72;5033997;28;20517;-75
2021/01/30 11:40:50;;;;;;;6.67;4.60;;;;;;;6.89;69.21;93210.75;5048989;28;20855;-74
2021/01/30 11:43:17;;;;;;;6.50;4.30;;;;;;;6.99;69.38;93196.09;5098226;28;20423;-74
2021/01/30 11:45:43;;;;;;;6.47;4.33;;;;;;;7.12;68.48;93200.00;5128891;27;20431;-73
2021/01/30 11:48:09;;;;;;;6.70;4.83;;;;;;;6.86;69.05;93190.28;5115063;27;20828;-74
2021/01/30 11:50:35;;;;;;;8.80;5.53;;;;;;;6.76;69.83;93194.31;5119405;27;20591;-75
2021/01/30 11:53:11;;;;;;;5.87;4.30;;;;;;;6.85;69.64;93194.81;5112683;28;20185;-75
2021/01/30 11:55:37;;;;;;;6.27;4.13;;;;;;;6.97;68.44;93198.34;5124363;27;20234;-74